sensor_id;sensor_type;location;lat;lon;timestamp;P1;durP1;ratioP1;P2;durP2;ratioP2
16153;SDS011;8182;55.648;13.208;2024-02-23T00:00:41;27.97;;;15.67;;
16153;SDS011;8182;55.648;13.208;2024-02-23T00:03:08;31.87;;;16.93;;
16153;SDS011;8182;55.648;13.208;2024-02-23T00:05:35;29.07;;;15.97;;
16153;SDS011;8182;55.648;13.208;2024-02-23T00:08:02;15.60;;;9.30;;
16153;SDS011;8182;55.648;13.208;2024-02-23T00:10:30;36.83;;;18.63;;
16153;SDS011;8182;55.648;13.208;2024-02-23T00:12:58;37.70;;;20.30;;
16153;SDS011;8182;55.648;13.208;2024-02-23T00:15:26;41.33;;;21.13;;
16153;SDS011;8182;55.648;13.208;2024-02-23T00:17:52;47.03;;;20.77;;
16153;SDS011;8182;55.648;13.208;2024-02-23T00:20:19;39.13;;;21.37;;
16153;SDS011;8182;55.648;13.208;2024-02-23T00:22:46;36.70;;;20.27;;
16153;SDS011;8182;55.648;13.208;2024-02-23T00:25:13;39.43;;;18.77;;
16153;SDS011;8182;55.648;13.208;2024-02-23T00:27:40;37.07;;;19.40;;
16153;SDS011;8182;55.648;13.208;2024-02-23T00:30:11;25.27;;;14.20;;
16153;SDS011;8182;55.648;13.208;2024-02-23T00:32:41;27.27;;;15.80;;
16153;SDS011;8182;55.648;13.208;2024-02-23T00:35:10;23.40;;;11.67;;
16153;SDS011;8182;55.648;13.208;2024-02-23T00:37:45;25.70;;;14.00;;
16153;SDS011;8182;55.648;13.208;2024-02-23T00:40:15;23.70;;;12.43;;
16153;SDS011;8182;55.648;13.208;2024-02-23T00:42:42;24.03;;;13.40;;
16153;SDS011;8182;55.648;13.208;2024-02-23T00:45:10;15.57;;;8.57;;
16153;SDS011;8182;55.648;13.208;2024-02-23T00:47:40;14.37;;;8.20;;
16153;SDS011;8182;55.648;13.208;2024-02-23T00:50:11;14.53;;;9.30;;
16153;SDS011;8182;55.648;13.208;2024-02-23T00:52:41;22.10;;;12.90;;
16153;SDS011;8182;55.648;13.208;2024-02-23T00:55:11;19.57;;;11.97;;
16153;SDS011;8182;55.648;13.208;2024-02-23T00:57:40;28.87;;;14.13;;
16153;SDS011;8182;55.648;13.208;2024-02-23T01:00:11;27.87;;;15.40;;
16153;SDS011;8182;55.648;13.208;2024-02-23T01:02:40;21.37;;;12.80;;
16153;SDS011;8182;55.648;13.208;2024-02-23T01:05:09;27.50;;;14.17;;
16153;SDS011;8182;55.648;13.208;2024-02-23T01:07:36;30.33;;;15.80;;
16153;SDS011;8182;55.648;13.208;2024-02-23T01:10:03;31.20;;;15.97;;
16153;SDS011;8182;55.648;13.208;2024-02-23T01:12:30;29.27;;;14.83;;
16153;SDS011;8182;55.648;13.208;2024-02-23T01:14:57;21.53;;;11.63;;
16153;SDS011;8182;55.648;13.208;2024-02-23T01:17:26;26.97;;;14.37;;
16153;SDS011;8182;55.648;13.208;2024-02-23T01:19:53;17.00;;;10.07;;
16153;SDS011;8182;55.648;13.208;2024-02-23T01:22:19;19.97;;;10.63;;
16153;SDS011;8182;55.648;13.208;2024-02-23T01:24:46;19.70;;;11.93;;
16153;SDS011;8182;55.648;13.208;2024-02-23T01:27:13;12.33;;;7.73;;
16153;SDS011;8182;55.648;13.208;2024-02-23T01:29:40;16.17;;;8.77;;
16153;SDS011;8182;55.648;13.208;2024-02-23T01:32:07;18.20;;;8.70;;
16153;SDS011;8182;55.648;13.208;2024-02-23T01:34:35;21.33;;;10.27;;
16153;SDS011;8182;55.648;13.208;2024-02-23T01:37:02;19.47;;;9.93;;
16153;SDS011;8182;55.648;13.208;2024-02-23T01:39:29;12.83;;;6.87;;
16153;SDS011;8182;55.648;13.208;2024-02-23T01:41:56;9.83;;;6.23;;
16153;SDS011;8182;55.648;13.208;2024-02-23T01:44:30;6.20;;;4.53;;
16153;SDS011;8182;55.648;13.208;2024-02-23T01:46:57;13.97;;;8.00;;
16153;SDS011;8182;55.648;13.208;2024-02-23T01:49:24;14.60;;;9.23;;
16153;SDS011;8182;55.648;13.208;2024-02-23T01:51:56;14.10;;;7.97;;
16153;SDS011;8182;55.648;13.208;2024-02-23T01:54:23;15.40;;;9.80;;
16153;SDS011;8182;55.648;13.208;2024-02-23T01:56:51;11.50;;;7.63;;
16153;SDS011;8182;55.648;13.208;2024-02-23T01:59:18;17.17;;;10.37;;
16153;SDS011;8182;55.648;13.208;2024-02-23T02:01:46;13.10;;;8.43;;
16153;SDS011;8182;55.648;13.208;2024-02-23T02:04:13;18.50;;;11.47;;
16153;SDS011;8182;55.648;13.208;2024-02-23T02:06:40;14.40;;;9.20;;
16153;SDS011;8182;55.648;13.208;2024-02-23T02:09:11;9.60;;;6.10;;
16153;SDS011;8182;55.648;13.208;2024-02-23T02:11:44;9.43;;;6.73;;
16153;SDS011;8182;55.648;13.208;2024-02-23T02:14:14;14.13;;;7.63;;
16153;SDS011;8182;55.648;13.208;2024-02-23T02:16:42;10.97;;;6.37;;
16153;SDS011;8182;55.648;13.208;2024-02-23T02:19:12;8.23;;;5.50;;
16153;SDS011;8182;55.648;13.208;2024-02-23T02:21:40;10.77;;;7.30;;
16153;SDS011;8182;55.648;13.208;2024-02-23T02:24:07;12.40;;;7.97;;
16153;SDS011;8182;55.648;13.208;2024-02-23T02:26:36;10.70;;;8.10;;
16153;SDS011;8182;55.648;13.208;2024-02-23T02:29:03;9.23;;;6.70;;
16153;SDS011;8182;55.648;13.208;2024-02-23T02:31:30;10.23;;;6.47;;
16153;SDS011;8182;55.648;13.208;2024-02-23T02:34:02;6.43;;;5.03;;
16153;SDS011;8182;55.648;13.208;2024-02-23T02:36:29;6.50;;;4.70;;
16153;SDS011;8182;55.648;13.208;2024-02-23T02:38:56;7.30;;;4.20;;
16153;SDS011;8182;55.648;13.208;2024-02-23T02:41:23;5.87;;;4.53;;
16153;SDS011;8182;55.648;13.208;2024-02-23T02:43:55;6.17;;;3.03;;
16153;SDS011;8182;55.648;13.208;2024-02-23T02:46:24;10.97;;;3.70;;
16153;SDS011;8182;55.648;13.208;2024-02-23T02:48:51;6.37;;;3.10;;
16153;SDS011;8182;55.648;13.208;2024-02-23T02:51:18;5.70;;;3.00;;
16153;SDS011;8182;55.648;13.208;2024-02-23T02:53:45;10.43;;;2.93;;
16153;SDS011;8182;55.648;13.208;2024-02-23T02:56:12;5.80;;;2.60;;
16153;SDS011;8182;55.648;13.208;2024-02-23T02:58:39;9.77;;;2.87;;
16153;SDS011;8182;55.648;13.208;2024-02-23T03:01:07;5.53;;;2.33;;
16153;SDS011;8182;55.648;13.208;2024-02-23T03:03:34;6.77;;;2.80;;
16153;SDS011;8182;55.648;13.208;2024-02-23T03:06:01;5.57;;;2.43;;
16153;SDS011;8182;55.648;13.208;2024-02-23T03:08:28;10.33;;;2.40;;
16153;SDS011;8182;55.648;13.208;2024-02-23T03:10:55;7.33;;;2.30;;
16153;SDS011;8182;55.648;13.208;2024-02-23T03:13:22;6.30;;;2.13;;
16153;SDS011;8182;55.648;13.208;2024-02-23T03:15:49;7.30;;;2.53;;
16153;SDS011;8182;55.648;13.208;2024-02-23T03:18:17;6.60;;;2.30;;
16153;SDS011;8182;55.648;13.208;2024-02-23T03:20:44;7.07;;;3.00;;
16153;SDS011;8182;55.648;13.208;2024-02-23T03:23:11;8.93;;;2.40;;
16153;SDS011;8182;55.648;13.208;2024-02-23T03:25:38;6.20;;;2.40;;
16153;SDS011;8182;55.648;13.208;2024-02-23T03:28:08;5.27;;;1.90;;
16153;SDS011;8182;55.648;13.208;2024-02-23T03:30:35;7.17;;;1.90;;
16153;SDS011;8182;55.648;13.208;2024-02-23T03:33:02;5.47;;;2.00;;
16153;SDS011;8182;55.648;13.208;2024-02-23T03:35:30;6.97;;;1.90;;
16153;SDS011;8182;55.648;13.208;2024-02-23T03:37:57;5.07;;;2.13;;
16153;SDS011;8182;55.648;13.208;2024-02-23T03:40:24;6.53;;;2.03;;
16153;SDS011;8182;55.648;13.208;2024-02-23T03:42:51;3.07;;;1.90;;
16153;SDS011;8182;55.648;13.208;2024-02-23T03:45:18;3.90;;;1.30;;
16153;SDS011;8182;55.648;13.208;2024-02-23T03:47:44;1.93;;;1.37;;
16153;SDS011;8182;55.648;13.208;2024-02-23T03:50:12;1.40;;;1.20;;
16153;SDS011;8182;55.648;13.208;2024-02-23T03:52:40;6.40;;;1.50;;
16153;SDS011;8182;55.648;13.208;2024-02-23T03:55:10;5.63;;;1.50;;
16153;SDS011;8182;55.648;13.208;2024-02-23T03:57:37;5.90;;;1.30;;
16153;SDS011;8182;55.648;13.208;2024-02-23T04:00:04;3.00;;;1.17;;
16153;SDS011;8182;55.648;13.208;2024-02-23T04:02:32;4.07;;;1.10;;
16153;SDS011;8182;55.648;13.208;2024-02-23T04:05:00;3.97;;;1.20;;
16153;SDS011;8182;55.648;13.208;2024-02-23T04:07:27;4.50;;;1.40;;
16153;SDS011;8182;55.648;13.208;2024-02-23T04:09:55;4.33;;;1.30;;
16153;SDS011;8182;55.648;13.208;2024-02-23T04:12:22;5.40;;;1.30;;
16153;SDS011;8182;55.648;13.208;2024-02-23T04:14:49;4.67;;;1.00;;
16153;SDS011;8182;55.648;13.208;2024-02-23T04:17:16;6.13;;;1.40;;
16153;SDS011;8182;55.648;13.208;2024-02-23T04:19:44;5.83;;;1.27;;
16153;SDS011;8182;55.648;13.208;2024-02-23T04:22:10;2.80;;;1.10;;
16153;SDS011;8182;55.648;13.208;2024-02-23T04:24:38;4.93;;;1.20;;
16153;SDS011;8182;55.648;13.208;2024-02-23T04:27:07;3.80;;;1.30;;
16153;SDS011;8182;55.648;13.208;2024-02-23T04:29:34;2.80;;;1.63;;
16153;SDS011;8182;55.648;13.208;2024-02-23T04:32:01;5.07;;;1.40;;
16153;SDS011;8182;55.648;13.208;2024-02-23T04:34:29;3.77;;;1.20;;
16153;SDS011;8182;55.648;13.208;2024-02-23T04:36:56;3.10;;;1.10;;
16153;SDS011;8182;55.648;13.208;2024-02-23T04:39:23;2.77;;;1.20;;
16153;SDS011;8182;55.648;13.208;2024-02-23T04:41:49;3.07;;;1.00;;
16153;SDS011;8182;55.648;13.208;2024-02-23T04:44:18;2.30;;;1.00;;
16153;SDS011;8182;55.648;13.208;2024-02-23T04:46:44;5.40;;;1.40;;
16153;SDS011;8182;55.648;13.208;2024-02-23T04:49:11;7.33;;;1.40;;
16153;SDS011;8182;55.648;13.208;2024-02-23T04:51:39;4.13;;;1.40;;
16153;SDS011;8182;55.648;13.208;2024-02-23T04:54:09;4.30;;;1.60;;
16153;SDS011;8182;55.648;13.208;2024-02-23T04:56:36;5.73;;;1.23;;
16153;SDS011;8182;55.648;13.208;2024-02-23T04:59:02;3.17;;;1.43;;
16153;SDS011;8182;55.648;13.208;2024-02-23T05:01:34;3.90;;;1.40;;
16153;SDS011;8182;55.648;13.208;2024-02-23T05:04:02;3.13;;;1.13;;
16153;SDS011;8182;55.648;13.208;2024-02-23T05:06:29;3.60;;;1.17;;
16153;SDS011;8182;55.648;13.208;2024-02-23T05:08:56;2.40;;;1.20;;
16153;SDS011;8182;55.648;13.208;2024-02-23T05:11:23;2.77;;;1.20;;
16153;SDS011;8182;55.648;13.208;2024-02-23T05:13:50;4.40;;;1.20;;
16153;SDS011;8182;55.648;13.208;2024-02-23T05:16:17;2.93;;;1.27;;
16153;SDS011;8182;55.648;13.208;2024-02-23T05:18:45;2.47;;;1.17;;
16153;SDS011;8182;55.648;13.208;2024-02-23T05:21:15;3.83;;;1.17;;
16153;SDS011;8182;55.648;13.208;2024-02-23T05:23:42;4.97;;;1.27;;
16153;SDS011;8182;55.648;13.208;2024-02-23T05:26:11;4.27;;;1.43;;
16153;SDS011;8182;55.648;13.208;2024-02-23T05:28:41;4.30;;;1.23;;
16153;SDS011;8182;55.648;13.208;2024-02-23T05:31:11;2.33;;;1.27;;
16153;SDS011;8182;55.648;13.208;2024-02-23T05:33:38;5.33;;;1.37;;
16153;SDS011;8182;55.648;13.208;2024-02-23T05:36:07;2.97;;;1.60;;
16153;SDS011;8182;55.648;13.208;2024-02-23T05:38:34;5.13;;;1.47;;
16153;SDS011;8182;55.648;13.208;2024-02-23T05:41:01;3.40;;;1.83;;
16153;SDS011;8182;55.648;13.208;2024-02-23T05:43:30;3.43;;;1.30;;
16153;SDS011;8182;55.648;13.208;2024-02-23T05:45:57;4.90;;;1.33;;
16153;SDS011;8182;55.648;13.208;2024-02-23T05:48:23;5.47;;;1.40;;
16153;SDS011;8182;55.648;13.208;2024-02-23T05:50:50;5.50;;;1.60;;
16153;SDS011;8182;55.648;13.208;2024-02-23T05:53:19;8.67;;;1.70;;
16153;SDS011;8182;55.648;13.208;2024-02-23T05:55:46;5.43;;;1.63;;
16153;SDS011;8182;55.648;13.208;2024-02-23T05:58:12;8.37;;;1.90;;
16153;SDS011;8182;55.648;13.208;2024-02-23T06:00:41;6.13;;;1.87;;
16153;SDS011;8182;55.648;13.208;2024-02-23T06:03:11;5.70;;;1.97;;
16153;SDS011;8182;55.648;13.208;2024-02-23T06:05:45;7.10;;;1.93;;
16153;SDS011;8182;55.648;13.208;2024-02-23T06:08:15;7.40;;;2.10;;
16153;SDS011;8182;55.648;13.208;2024-02-23T06:10:47;9.77;;;1.97;;
16153;SDS011;8182;55.648;13.208;2024-02-23T06:13:14;7.37;;;1.80;;
16153;SDS011;8182;55.648;13.208;2024-02-23T06:15:41;7.37;;;1.97;;
16153;SDS011;8182;55.648;13.208;2024-02-23T06:18:14;6.20;;;1.90;;
16153;SDS011;8182;55.648;13.208;2024-02-23T06:20:46;8.13;;;1.90;;
16153;SDS011;8182;55.648;13.208;2024-02-23T06:23:14;8.93;;;1.80;;
16153;SDS011;8182;55.648;13.208;2024-02-23T06:25:50;9.43;;;2.10;;
16153;SDS011;8182;55.648;13.208;2024-02-23T06:28:17;5.27;;;1.60;;
16153;SDS011;8182;55.648;13.208;2024-02-23T06:30:44;5.10;;;1.80;;
16153;SDS011;8182;55.648;13.208;2024-02-23T06:33:11;4.03;;;1.43;;
16153;SDS011;8182;55.648;13.208;2024-02-23T06:35:38;5.53;;;1.87;;
16153;SDS011;8182;55.648;13.208;2024-02-23T06:38:04;5.53;;;1.57;;
16153;SDS011;8182;55.648;13.208;2024-02-23T06:40:31;6.83;;;1.40;;
16153;SDS011;8182;55.648;13.208;2024-02-23T06:43:00;4.50;;;1.60;;
16153;SDS011;8182;55.648;13.208;2024-02-23T06:45:27;4.87;;;1.90;;
16153;SDS011;8182;55.648;13.208;2024-02-23T06:47:53;3.00;;;1.60;;
16153;SDS011;8182;55.648;13.208;2024-02-23T06:50:20;4.17;;;1.30;;
16153;SDS011;8182;55.648;13.208;2024-02-23T06:52:47;3.67;;;1.50;;
16153;SDS011;8182;55.648;13.208;2024-02-23T06:55:14;4.67;;;1.53;;
16153;SDS011;8182;55.648;13.208;2024-02-23T06:57:45;6.47;;;1.60;;
16153;SDS011;8182;55.648;13.208;2024-02-23T07:00:16;4.30;;;1.87;;
16153;SDS011;8182;55.648;13.208;2024-02-23T07:02:43;10.47;;;1.90;;
16153;SDS011;8182;55.648;13.208;2024-02-23T07:05:10;5.63;;;1.67;;
16153;SDS011;8182;55.648;13.208;2024-02-23T07:07:39;6.13;;;1.80;;
16153;SDS011;8182;55.648;13.208;2024-02-23T07:10:06;10.23;;;1.97;;
16153;SDS011;8182;55.648;13.208;2024-02-23T07:12:35;9.47;;;2.00;;
16153;SDS011;8182;55.648;13.208;2024-02-23T07:15:02;7.70;;;2.23;;
16153;SDS011;8182;55.648;13.208;2024-02-23T07:17:31;2.73;;;1.40;;
16153;SDS011;8182;55.648;13.208;2024-02-23T07:19:58;6.43;;;1.80;;
16153;SDS011;8182;55.648;13.208;2024-02-23T07:22:30;7.37;;;2.00;;
16153;SDS011;8182;55.648;13.208;2024-02-23T07:24:57;5.17;;;1.80;;
16153;SDS011;8182;55.648;13.208;2024-02-23T07:27:26;4.70;;;1.90;;
16153;SDS011;8182;55.648;13.208;2024-02-23T07:29:53;7.43;;;2.20;;
16153;SDS011;8182;55.648;13.208;2024-02-23T07:32:22;5.40;;;1.97;;
16153;SDS011;8182;55.648;13.208;2024-02-23T07:34:51;6.03;;;1.70;;
16153;SDS011;8182;55.648;13.208;2024-02-23T07:37:18;5.73;;;1.87;;
16153;SDS011;8182;55.648;13.208;2024-02-23T07:39:45;4.63;;;2.03;;
16153;SDS011;8182;55.648;13.208;2024-02-23T07:42:12;6.73;;;1.93;;
16153;SDS011;8182;55.648;13.208;2024-02-23T07:44:43;7.13;;;2.10;;
16153;SDS011;8182;55.648;13.208;2024-02-23T07:47:10;7.13;;;1.90;;
16153;SDS011;8182;55.648;13.208;2024-02-23T07:49:38;6.20;;;2.10;;
16153;SDS011;8182;55.648;13.208;2024-02-23T07:52:07;4.77;;;2.10;;
16153;SDS011;8182;55.648;13.208;2024-02-23T07:54:34;6.10;;;1.87;;
16153;SDS011;8182;55.648;13.208;2024-02-23T07:57:01;3.37;;;1.60;;
16153;SDS011;8182;55.648;13.208;2024-02-23T07:59:29;6.30;;;2.03;;
16153;SDS011;8182;55.648;13.208;2024-02-23T08:01:56;4.77;;;1.90;;
16153;SDS011;8182;55.648;13.208;2024-02-23T08:04:23;5.23;;;2.10;;
16153;SDS011;8182;55.648;13.208;2024-02-23T08:06:55;7.10;;;1.87;;
16153;SDS011;8182;55.648;13.208;2024-02-23T08:09:23;5.93;;;1.70;;
16153;SDS011;8182;55.648;13.208;2024-02-23T08:11:50;4.87;;;1.80;;
16153;SDS011;8182;55.648;13.208;2024-02-23T08:14:17;4.73;;;1.67;;
16153;SDS011;8182;55.648;13.208;2024-02-23T08:16:44;6.90;;;2.10;;
16153;SDS011;8182;55.648;13.208;2024-02-23T08:19:11;9.57;;;2.27;;
16153;SDS011;8182;55.648;13.208;2024-02-23T08:21:38;5.30;;;1.67;;
16153;SDS011;8182;55.648;13.208;2024-02-23T08:24:06;4.67;;;2.00;;
16153;SDS011;8182;55.648;13.208;2024-02-23T08:26:34;4.17;;;1.80;;
16153;SDS011;8182;55.648;13.208;2024-02-23T08:29:03;5.57;;;2.13;;
16153;SDS011;8182;55.648;13.208;2024-02-23T08:31:30;6.47;;;2.23;;
16153;SDS011;8182;55.648;13.208;2024-02-23T08:33:57;8.73;;;2.30;;
16153;SDS011;8182;55.648;13.208;2024-02-23T08:36:24;5.03;;;1.53;;
16153;SDS011;8182;55.648;13.208;2024-02-23T08:38:51;8.40;;;2.10;;
16153;SDS011;8182;55.648;13.208;2024-02-23T08:41:17;7.40;;;2.53;;
16153;SDS011;8182;55.648;13.208;2024-02-23T08:43:46;8.57;;;2.33;;
16153;SDS011;8182;55.648;13.208;2024-02-23T08:46:12;7.67;;;2.40;;
16153;SDS011;8182;55.648;13.208;2024-02-23T08:48:39;8.33;;;2.67;;
16153;SDS011;8182;55.648;13.208;2024-02-23T08:51:06;6.87;;;2.40;;
16153;SDS011;8182;55.648;13.208;2024-02-23T08:53:33;5.00;;;1.90;;
16153;SDS011;8182;55.648;13.208;2024-02-23T08:56:00;6.40;;;2.20;;
16153;SDS011;8182;55.648;13.208;2024-02-23T08:58:27;7.40;;;2.30;;
16153;SDS011;8182;55.648;13.208;2024-02-23T09:00:55;7.33;;;2.47;;
16153;SDS011;8182;55.648;13.208;2024-02-23T09:03:22;5.63;;;2.10;;
16153;SDS011;8182;55.648;13.208;2024-02-23T09:05:49;7.57;;;2.40;;
16153;SDS011;8182;55.648;13.208;2024-02-23T09:08:16;4.00;;;1.77;;
16153;SDS011;8182;55.648;13.208;2024-02-23T09:10:43;6.83;;;2.03;;
16153;SDS011;8182;55.648;13.208;2024-02-23T09:13:10;5.70;;;2.10;;
16153;SDS011;8182;55.648;13.208;2024-02-23T09:15:37;7.00;;;2.10;;
16153;SDS011;8182;55.648;13.208;2024-02-23T09:18:05;4.80;;;1.90;;
16153;SDS011;8182;55.648;13.208;2024-02-23T09:20:32;6.00;;;2.00;;
16153;SDS011;8182;55.648;13.208;2024-02-23T09:22:59;8.50;;;2.17;;
16153;SDS011;8182;55.648;13.208;2024-02-23T09:25:26;7.00;;;2.00;;
16153;SDS011;8182;55.648;13.208;2024-02-23T09:27:56;7.80;;;2.60;;
16153;SDS011;8182;55.648;13.208;2024-02-23T09:30:23;7.13;;;2.30;;
16153;SDS011;8182;55.648;13.208;2024-02-23T09:32:50;3.73;;;1.83;;
16153;SDS011;8182;55.648;13.208;2024-02-23T09:35:18;6.07;;;2.20;;
16153;SDS011;8182;55.648;13.208;2024-02-23T09:37:48;5.57;;;2.03;;
16153;SDS011;8182;55.648;13.208;2024-02-23T09:40:15;8.40;;;2.20;;
16153;SDS011;8182;55.648;13.208;2024-02-23T09:42:42;4.67;;;2.10;;
16153;SDS011;8182;55.648;13.208;2024-02-23T09:45:14;6.27;;;2.30;;
16153;SDS011;8182;55.648;13.208;2024-02-23T09:47:43;7.23;;;2.27;;
16153;SDS011;8182;55.648;13.208;2024-02-23T09:50:10;4.97;;;2.00;;
16153;SDS011;8182;55.648;13.208;2024-02-23T09:52:41;5.53;;;2.27;;
16153;SDS011;8182;55.648;13.208;2024-02-23T09:55:08;5.33;;;2.10;;
16153;SDS011;8182;55.648;13.208;2024-02-23T09:57:35;4.77;;;2.10;;
16153;SDS011;8182;55.648;13.208;2024-02-23T10:00:03;5.03;;;2.10;;
16153;SDS011;8182;55.648;13.208;2024-02-23T10:02:31;7.23;;;2.33;;
16153;SDS011;8182;55.648;13.208;2024-02-23T10:04:59;6.70;;;2.27;;
16153;SDS011;8182;55.648;13.208;2024-02-23T10:07:27;3.97;;;2.17;;
16153;SDS011;8182;55.648;13.208;2024-02-23T10:09:56;6.93;;;1.97;;
16153;SDS011;8182;55.648;13.208;2024-02-23T10:12:27;3.80;;;1.90;;
16153;SDS011;8182;55.648;13.208;2024-02-23T10:14:54;3.17;;;1.90;;
16153;SDS011;8182;55.648;13.208;2024-02-23T10:17:20;3.97;;;2.30;;
16153;SDS011;8182;55.648;13.208;2024-02-23T10:19:47;5.23;;;1.90;;
16153;SDS011;8182;55.648;13.208;2024-02-23T10:22:14;6.00;;;2.13;;
16153;SDS011;8182;55.648;13.208;2024-02-23T10:24:43;3.57;;;1.67;;
16153;SDS011;8182;55.648;13.208;2024-02-23T10:27:12;6.10;;;1.93;;
16153;SDS011;8182;55.648;13.208;2024-02-23T10:29:39;4.53;;;2.30;;
16153;SDS011;8182;55.648;13.208;2024-02-23T10:32:06;5.30;;;1.90;;
16153;SDS011;8182;55.648;13.208;2024-02-23T10:34:34;3.53;;;1.60;;
16153;SDS011;8182;55.648;13.208;2024-02-23T10:37:03;4.47;;;1.80;;
16153;SDS011;8182;55.648;13.208;2024-02-23T10:39:33;4.50;;;1.50;;
16153;SDS011;8182;55.648;13.208;2024-02-23T10:42:06;4.00;;;1.60;;
16153;SDS011;8182;55.648;13.208;2024-02-23T10:44:37;2.53;;;1.70;;
16153;SDS011;8182;55.648;13.208;2024-02-23T10:47:04;3.73;;;1.40;;
16153;SDS011;8182;55.648;13.208;2024-02-23T10:49:31;6.83;;;1.57;;
16153;SDS011;8182;55.648;13.208;2024-02-23T10:51:59;4.57;;;1.70;;
16153;SDS011;8182;55.648;13.208;2024-02-23T10:54:28;3.00;;;1.60;;
16153;SDS011;8182;55.648;13.208;2024-02-23T10:56:57;6.13;;;1.83;;
16153;SDS011;8182;55.648;13.208;2024-02-23T10:59:24;3.83;;;1.50;;
16153;SDS011;8182;55.648;13.208;2024-02-23T11:01:54;5.60;;;1.60;;
16153;SDS011;8182;55.648;13.208;2024-02-23T11:04:24;3.73;;;1.40;;
16153;SDS011;8182;55.648;13.208;2024-02-23T11:06:53;3.93;;;1.40;;
16153;SDS011;8182;55.648;13.208;2024-02-23T11:09:23;4.30;;;1.70;;
16153;SDS011;8182;55.648;13.208;2024-02-23T11:11:52;6.20;;;1.73;;
16153;SDS011;8182;55.648;13.208;2024-02-23T11:14:28;7.30;;;1.70;;
16153;SDS011;8182;55.648;13.208;2024-02-23T11:16:58;5.00;;;1.70;;
16153;SDS011;8182;55.648;13.208;2024-02-23T11:19:31;5.43;;;1.73;;
16153;SDS011;8182;55.648;13.208;2024-02-23T11:22:00;4.57;;;1.87;;
16153;SDS011;8182;55.648;13.208;2024-02-23T11:24:28;7.23;;;1.77;;
16153;SDS011;8182;55.648;13.208;2024-02-23T11:26:58;3.53;;;1.90;;
16153;SDS011;8182;55.648;13.208;2024-02-23T11:29:33;5.80;;;1.83;;
16153;SDS011;8182;55.648;13.208;2024-02-23T11:32:03;5.40;;;2.00;;
16153;SDS011;8182;55.648;13.208;2024-02-23T11:34:30;4.07;;;1.90;;
16153;SDS011;8182;55.648;13.208;2024-02-23T11:36:57;5.83;;;2.10;;
16153;SDS011;8182;55.648;13.208;2024-02-23T11:39:25;6.57;;;1.80;;
16153;SDS011;8182;55.648;13.208;2024-02-23T11:41:53;5.63;;;2.10;;
16153;SDS011;8182;55.648;13.208;2024-02-23T11:44:21;6.00;;;1.87;;
16153;SDS011;8182;55.648;13.208;2024-02-23T11:46:48;5.20;;;2.00;;
16153;SDS011;8182;55.648;13.208;2024-02-23T11:49:16;4.97;;;1.73;;
16153;SDS011;8182;55.648;13.208;2024-02-23T11:51:43;6.73;;;1.77;;
16153;SDS011;8182;55.648;13.208;2024-02-23T11:54:10;5.20;;;1.60;;
16153;SDS011;8182;55.648;13.208;2024-02-23T11:56:38;9.17;;;2.00;;
16153;SDS011;8182;55.648;13.208;2024-02-23T11:59:06;5.77;;;1.93;;
16153;SDS011;8182;55.648;13.208;2024-02-23T12:01:35;5.77;;;2.10;;
16153;SDS011;8182;55.648;13.208;2024-02-23T12:04:02;5.83;;;1.93;;
16153;SDS011;8182;55.648;13.208;2024-02-23T12:06:30;5.43;;;2.17;;
16153;SDS011;8182;55.648;13.208;2024-02-23T12:08:58;5.20;;;2.10;;
16153;SDS011;8182;55.648;13.208;2024-02-23T12:11:25;3.73;;;2.40;;
16153;SDS011;8182;55.648;13.208;2024-02-23T12:13:52;3.73;;;1.90;;
16153;SDS011;8182;55.648;13.208;2024-02-23T12:16:20;7.30;;;2.10;;
16153;SDS011;8182;55.648;13.208;2024-02-23T12:18:52;5.10;;;2.07;;
16153;SDS011;8182;55.648;13.208;2024-02-23T12:21:20;3.37;;;1.90;;
16153;SDS011;8182;55.648;13.208;2024-02-23T12:23:50;5.30;;;2.20;;
16153;SDS011;8182;55.648;13.208;2024-02-23T12:26:17;8.27;;;2.20;;
16153;SDS011;8182;55.648;13.208;2024-02-23T12:28:46;4.13;;;2.33;;
16153;SDS011;8182;55.648;13.208;2024-02-23T12:31:13;5.13;;;2.40;;
16153;SDS011;8182;55.648;13.208;2024-02-23T12:33:49;7.37;;;2.50;;
16153;SDS011;8182;55.648;13.208;2024-02-23T12:36:16;6.53;;;2.30;;
16153;SDS011;8182;55.648;13.208;2024-02-23T12:38:43;8.20;;;2.63;;
16153;SDS011;8182;55.648;13.208;2024-02-23T12:41:12;4.43;;;2.10;;
16153;SDS011;8182;55.648;13.208;2024-02-23T12:43:38;5.73;;;2.53;;
16153;SDS011;8182;55.648;13.208;2024-02-23T12:46:05;7.77;;;2.20;;
16153;SDS011;8182;55.648;13.208;2024-02-23T12:48:33;5.13;;;2.00;;
16153;SDS011;8182;55.648;13.208;2024-02-23T12:51:00;6.60;;;2.00;;
16153;SDS011;8182;55.648;13.208;2024-02-23T12:53:31;3.47;;;1.80;;
16153;SDS011;8182;55.648;13.208;2024-02-23T12:56:01;5.23;;;1.93;;
16153;SDS011;8182;55.648;13.208;2024-02-23T12:58:30;6.53;;;2.20;;
16153;SDS011;8182;55.648;13.208;2024-02-23T13:00:59;5.77;;;2.17;;
16153;SDS011;8182;55.648;13.208;2024-02-23T13:03:26;6.00;;;2.30;;
16153;SDS011;8182;55.648;13.208;2024-02-23T13:05:54;6.43;;;2.30;;
16153;SDS011;8182;55.648;13.208;2024-02-23T13:08:21;7.10;;;2.10;;
16153;SDS011;8182;55.648;13.208;2024-02-23T13:10:48;5.83;;;2.30;;
16153;SDS011;8182;55.648;13.208;2024-02-23T13:13:15;6.77;;;2.33;;
16153;SDS011;8182;55.648;13.208;2024-02-23T13:15:43;6.07;;;2.27;;
16153;SDS011;8182;55.648;13.208;2024-02-23T13:18:10;5.57;;;2.63;;
16153;SDS011;8182;55.648;13.208;2024-02-23T13:20:45;8.17;;;2.60;;
16153;SDS011;8182;55.648;13.208;2024-02-23T13:23:12;7.23;;;2.70;;
16153;SDS011;8182;55.648;13.208;2024-02-23T13:25:40;4.80;;;2.30;;
16153;SDS011;8182;55.648;13.208;2024-02-23T13:28:15;5.23;;;2.43;;
16153;SDS011;8182;55.648;13.208;2024-02-23T13:30:46;5.27;;;2.33;;
16153;SDS011;8182;55.648;13.208;2024-02-23T13:33:13;7.00;;;2.17;;
16153;SDS011;8182;55.648;13.208;2024-02-23T13:35:41;9.90;;;2.37;;
16153;SDS011;8182;55.648;13.208;2024-02-23T13:38:08;7.67;;;2.70;;
16153;SDS011;8182;55.648;13.208;2024-02-23T13:40:35;3.80;;;2.10;;
16153;SDS011;8182;55.648;13.208;2024-02-23T13:43:02;4.40;;;2.47;;
16153;SDS011;8182;55.648;13.208;2024-02-23T13:45:29;5.90;;;2.27;;
16153;SDS011;8182;55.648;13.208;2024-02-23T13:47:58;5.10;;;2.60;;
16153;SDS011;8182;55.648;13.208;2024-02-23T13:50:27;5.73;;;2.50;;
16153;SDS011;8182;55.648;13.208;2024-02-23T13:52:54;3.47;;;2.27;;
16153;SDS011;8182;55.648;13.208;2024-02-23T13:55:21;6.00;;;2.50;;
16153;SDS011;8182;55.648;13.208;2024-02-23T13:57:48;7.97;;;2.10;;
16153;SDS011;8182;55.648;13.208;2024-02-23T14:00:16;6.17;;;2.67;;
16153;SDS011;8182;55.648;13.208;2024-02-23T14:02:43;6.57;;;2.47;;
16153;SDS011;8182;55.648;13.208;2024-02-23T14:05:14;6.87;;;2.40;;
16153;SDS011;8182;55.648;13.208;2024-02-23T14:07:46;4.87;;;2.50;;
16153;SDS011;8182;55.648;13.208;2024-02-23T14:10:15;5.07;;;2.37;;
16153;SDS011;8182;55.648;13.208;2024-02-23T14:12:45;4.03;;;2.20;;
16153;SDS011;8182;55.648;13.208;2024-02-23T14:15:14;5.73;;;2.10;;
16153;SDS011;8182;55.648;13.208;2024-02-23T14:17:41;6.67;;;2.27;;
16153;SDS011;8182;55.648;13.208;2024-02-23T14:20:09;7.37;;;2.50;;
16153;SDS011;8182;55.648;13.208;2024-02-23T14:22:38;6.20;;;2.63;;
16153;SDS011;8182;55.648;13.208;2024-02-23T14:25:05;6.87;;;1.97;;
16153;SDS011;8182;55.648;13.208;2024-02-23T14:27:33;9.80;;;2.40;;
16153;SDS011;8182;55.648;13.208;2024-02-23T14:29:59;5.17;;;2.30;;
16153;SDS011;8182;55.648;13.208;2024-02-23T14:32:27;4.90;;;2.20;;
16153;SDS011;8182;55.648;13.208;2024-02-23T14:34:54;8.77;;;3.87;;
16153;SDS011;8182;55.648;13.208;2024-02-23T14:37:23;5.40;;;2.30;;
16153;SDS011;8182;55.648;13.208;2024-02-23T14:39:50;5.50;;;2.50;;
16153;SDS011;8182;55.648;13.208;2024-02-23T14:42:17;6.87;;;2.10;;
16153;SDS011;8182;55.648;13.208;2024-02-23T14:44:44;8.17;;;2.43;;
16153;SDS011;8182;55.648;13.208;2024-02-23T14:47:11;5.87;;;2.30;;